sensor_id;sensor_type;location;lat;lon;timestamp;P1;durP1;ratioP1;P2;durP2;ratioP2
17985;SDS011;9118;48.122;11.546;2022-12-07T00:00:27;15.13;;;10.40;;
17985;SDS011;9118;48.122;11.546;2022-12-07T00:02:55;15.37;;;9.80;;
17985;SDS011;9118;48.122;11.546;2022-12-07T00:05:22;17.00;;;9.83;;
17985;SDS011;9118;48.122;11.546;2022-12-07T00:07:49;14.83;;;10.10;;
17985;SDS011;9118;48.122;11.546;2022-12-07T00:10:17;15.63;;;10.37;;
17985;SDS011;9118;48.122;11.546;2022-12-07T00:12:44;16.07;;;10.40;;
17985;SDS011;9118;48.122;11.546;2022-12-07T00:15:11;15.17;;;10.00;;
17985;SDS011;9118;48.122;11.546;2022-12-07T00:17:41;12.50;;;8.93;;
17985;SDS011;9118;48.122;11.546;2022-12-07T00:20:08;16.70;;;10.60;;
17985;SDS011;9118;48.122;11.546;2022-12-07T00:22:36;15.37;;;10.07;;
17985;SDS011;9118;48.122;11.546;2022-12-07T00:25:03;15.93;;;10.03;;
17985;SDS011;9118;48.122;11.546;2022-12-07T00:27:32;14.67;;;9.93;;
17985;SDS011;9118;48.122;11.546;2022-12-07T00:29:59;16.23;;;10.20;;
17985;SDS011;9118;48.122;11.546;2022-12-07T00:32:29;14.93;;;9.53;;
17985;SDS011;9118;48.122;11.546;2022-12-07T00:34:56;13.50;;;9.70;;
17985;SDS011;9118;48.122;11.546;2022-12-07T00:37:23;15.50;;;9.77;;
17985;SDS011;9118;48.122;11.546;2022-12-07T00:39:50;17.63;;;10.47;;
17985;SDS011;9118;48.122;11.546;2022-12-07T00:42:17;13.73;;;9.50;;
17985;SDS011;9118;48.122;11.546;2022-12-07T00:44:45;15.40;;;9.63;;
17985;SDS011;9118;48.122;11.546;2022-12-07T00:47:12;15.93;;;9.57;;
17985;SDS011;9118;48.122;11.546;2022-12-07T00:49:39;14.73;;;9.47;;
17985;SDS011;9118;48.122;11.546;2022-12-07T00:52:06;14.83;;;10.10;;
17985;SDS011;9118;48.122;11.546;2022-12-07T00:54:35;14.40;;;9.53;;
17985;SDS011;9118;48.122;11.546;2022-12-07T00:57:05;14.23;;;9.40;;
17985;SDS011;9118;48.122;11.546;2022-12-07T00:59:32;13.73;;;9.20;;
17985;SDS011;9118;48.122;11.546;2022-12-07T01:02:01;14.20;;;9.33;;
17985;SDS011;9118;48.122;11.546;2022-12-07T01:04:28;12.27;;;8.53;;
17985;SDS011;9118;48.122;11.546;2022-12-07T01:06:55;15.47;;;9.07;;
17985;SDS011;9118;48.122;11.546;2022-12-07T01:09:22;14.70;;;9.83;;
17985;SDS011;9118;48.122;11.546;2022-12-07T01:11:50;14.37;;;8.93;;
17985;SDS011;9118;48.122;11.546;2022-12-07T01:14:16;12.93;;;8.87;;
17985;SDS011;9118;48.122;11.546;2022-12-07T01:16:43;12.90;;;8.63;;
17985;SDS011;9118;48.122;11.546;2022-12-07T01:19:12;13.47;;;8.40;;
17985;SDS011;9118;48.122;11.546;2022-12-07T01:21:39;12.80;;;9.00;;
17985;SDS011;9118;48.122;11.546;2022-12-07T01:24:09;13.40;;;8.17;;
17985;SDS011;9118;48.122;11.546;2022-12-07T01:26:37;13.07;;;8.63;;
17985;SDS011;9118;48.122;11.546;2022-12-07T01:29:04;14.17;;;9.03;;
17985;SDS011;9118;48.122;11.546;2022-12-07T01:31:31;12.97;;;8.97;;
17985;SDS011;9118;48.122;11.546;2022-12-07T01:33:59;12.43;;;8.93;;
17985;SDS011;9118;48.122;11.546;2022-12-07T01:36:29;13.30;;;9.20;;
17985;SDS011;9118;48.122;11.546;2022-12-07T01:38:57;12.57;;;8.63;;
17985;SDS011;9118;48.122;11.546;2022-12-07T01:41:27;14.03;;;9.43;;
17985;SDS011;9118;48.122;11.546;2022-12-07T01:46:48;13.43;;;9.07;;
17985;SDS011;9118;48.122;11.546;2022-12-07T01:49:18;13.93;;;9.03;;
17985;SDS011;9118;48.122;11.546;2022-12-07T01:52:01;14.30;;;9.13;;
17985;SDS011;9118;48.122;11.546;2022-12-07T01:54:42;16.43;;;10.03;;
17985;SDS011;9118;48.122;11.546;2022-12-07T01:57:17;14.00;;;9.13;;
17985;SDS011;9118;48.122;11.546;2022-12-07T01:59:45;13.83;;;9.10;;
17985;SDS011;9118;48.122;11.546;2022-12-07T02:02:17;14.43;;;9.10;;
17985;SDS011;9118;48.122;11.546;2022-12-07T02:04:46;14.27;;;9.50;;
17985;SDS011;9118;48.122;11.546;2022-12-07T02:07:14;12.03;;;8.57;;
17985;SDS011;9118;48.122;11.546;2022-12-07T02:09:41;12.70;;;9.43;;
17985;SDS011;9118;48.122;11.546;2022-12-07T02:12:09;14.83;;;9.23;;
17985;SDS011;9118;48.122;11.546;2022-12-07T02:14:36;14.33;;;8.87;;
17985;SDS011;9118;48.122;11.546;2022-12-07T02:17:08;13.90;;;9.13;;
17985;SDS011;9118;48.122;11.546;2022-12-07T02:25:54;14.70;;;9.40;;
17985;SDS011;9118;48.122;11.546;2022-12-07T02:28:49;12.57;;;8.90;;
17985;SDS011;9118;48.122;11.546;2022-12-07T02:31:32;13.77;;;9.27;;
17985;SDS011;9118;48.122;11.546;2022-12-07T02:34:03;13.57;;;9.37;;
17985;SDS011;9118;48.122;11.546;2022-12-07T02:36:34;13.00;;;9.47;;
17985;SDS011;9118;48.122;11.546;2022-12-07T02:39:09;12.53;;;8.83;;
17985;SDS011;9118;48.122;11.546;2022-12-07T02:41:42;14.57;;;9.47;;
17985;SDS011;9118;48.122;11.546;2022-12-07T02:44:15;14.27;;;8.87;;
17985;SDS011;9118;48.122;11.546;2022-12-07T02:46:46;13.70;;;9.50;;
17985;SDS011;9118;48.122;11.546;2022-12-07T02:49:17;15.23;;;9.33;;
17985;SDS011;9118;48.122;11.546;2022-12-07T02:51:45;14.47;;;9.43;;
17985;SDS011;9118;48.122;11.546;2022-12-07T02:54:13;13.20;;;9.10;;
17985;SDS011;9118;48.122;11.546;2022-12-07T02:56:43;14.07;;;9.60;;
17985;SDS011;9118;48.122;11.546;2022-12-07T02:59:17;13.60;;;9.37;;
17985;SDS011;9118;48.122;11.546;2022-12-07T03:01:55;15.60;;;9.60;;
17985;SDS011;9118;48.122;11.546;2022-12-07T03:04:32;16.67;;;9.97;;
17985;SDS011;9118;48.122;11.546;2022-12-07T03:07:09;12.60;;;9.37;;
17985;SDS011;9118;48.122;11.546;2022-12-07T03:09:43;15.07;;;9.47;;
17985;SDS011;9118;48.122;11.546;2022-12-07T03:12:17;14.27;;;9.80;;
17985;SDS011;9118;48.122;11.546;2022-12-07T03:14:50;12.63;;;9.27;;
17985;SDS011;9118;48.122;11.546;2022-12-07T03:17:24;16.17;;;9.80;;
17985;SDS011;9118;48.122;11.546;2022-12-07T03:19:56;14.90;;;9.27;;
17985;SDS011;9118;48.122;11.546;2022-12-07T03:22:25;13.67;;;9.63;;
17985;SDS011;9118;48.122;11.546;2022-12-07T03:24:57;14.23;;;9.73;;
17985;SDS011;9118;48.122;11.546;2022-12-07T03:27:27;15.77;;;9.87;;
17985;SDS011;9118;48.122;11.546;2022-12-07T03:30:00;14.47;;;9.17;;
17985;SDS011;9118;48.122;11.546;2022-12-07T03:32:31;13.50;;;9.30;;
17985;SDS011;9118;48.122;11.546;2022-12-07T03:35:03;13.50;;;9.10;;
17985;SDS011;9118;48.122;11.546;2022-12-07T03:37:36;14.23;;;9.37;;
17985;SDS011;9118;48.122;11.546;2022-12-07T03:40:11;15.30;;;9.57;;
17985;SDS011;9118;48.122;11.546;2022-12-07T03:42:41;14.47;;;9.83;;
17985;SDS011;9118;48.122;11.546;2022-12-07T03:45:10;15.47;;;9.57;;
17985;SDS011;9118;48.122;11.546;2022-12-07T03:47:42;13.80;;;9.50;;
17985;SDS011;9118;48.122;11.546;2022-12-07T03:50:15;15.77;;;9.73;;
17985;SDS011;9118;48.122;11.546;2022-12-07T03:52:52;14.47;;;10.03;;
17985;SDS011;9118;48.122;11.546;2022-12-07T03:55:23;15.40;;;9.80;;
17985;SDS011;9118;48.122;11.546;2022-12-07T03:57:55;14.97;;;10.37;;
17985;SDS011;9118;48.122;11.546;2022-12-07T04:00:26;17.43;;;10.20;;
17985;SDS011;9118;48.122;11.546;2022-12-07T04:02:53;15.00;;;9.67;;
17985;SDS011;9118;48.122;11.546;2022-12-07T04:05:21;14.23;;;9.50;;
17985;SDS011;9118;48.122;11.546;2022-12-07T04:07:48;16.37;;;10.07;;
17985;SDS011;9118;48.122;11.546;2022-12-07T04:10:15;15.30;;;10.27;;
17985;SDS011;9118;48.122;11.546;2022-12-07T04:12:42;16.67;;;10.57;;
17985;SDS011;9118;48.122;11.546;2022-12-07T04:15:10;16.03;;;10.37;;
17985;SDS011;9118;48.122;11.546;2022-12-07T04:17:38;16.70;;;10.97;;
17985;SDS011;9118;48.122;11.546;2022-12-07T04:20:06;17.00;;;11.10;;
17985;SDS011;9118;48.122;11.546;2022-12-07T04:22:34;15.63;;;10.67;;
17985;SDS011;9118;48.122;11.546;2022-12-07T04:25:01;14.33;;;9.70;;
17985;SDS011;9118;48.122;11.546;2022-12-07T04:27:28;16.90;;;11.40;;
17985;SDS011;9118;48.122;11.546;2022-12-07T04:29:55;17.03;;;10.00;;
17985;SDS011;9118;48.122;11.546;2022-12-07T04:32:22;15.20;;;10.27;;
17985;SDS011;9118;48.122;11.546;2022-12-07T04:34:51;15.83;;;10.40;;
17985;SDS011;9118;48.122;11.546;2022-12-07T04:37:18;17.73;;;11.00;;
17985;SDS011;9118;48.122;11.546;2022-12-07T04:39:45;16.97;;;10.87;;
17985;SDS011;9118;48.122;11.546;2022-12-07T04:42:12;19.10;;;11.07;;
17985;SDS011;9118;48.122;11.546;2022-12-07T04:44:39;16.50;;;10.80;;
17985;SDS011;9118;48.122;11.546;2022-12-07T04:47:05;17.67;;;11.13;;
17985;SDS011;9118;48.122;11.546;2022-12-07T04:49:36;17.13;;;11.07;;
17985;SDS011;9118;48.122;11.546;2022-12-07T04:52:04;17.07;;;11.00;;
17985;SDS011;9118;48.122;11.546;2022-12-07T04:54:31;17.60;;;11.07;;
17985;SDS011;9118;48.122;11.546;2022-12-07T04:56:58;17.30;;;10.43;;
17985;SDS011;9118;48.122;11.546;2022-12-07T04:59:25;17.17;;;10.57;;
17985;SDS011;9118;48.122;11.546;2022-12-07T05:01:53;17.70;;;11.13;;
17985;SDS011;9118;48.122;11.546;2022-12-07T05:04:20;17.23;;;10.70;;
17985;SDS011;9118;48.122;11.546;2022-12-07T05:06:48;15.73;;;10.70;;
17985;SDS011;9118;48.122;11.546;2022-12-07T05:09:16;14.80;;;10.00;;
17985;SDS011;9118;48.122;11.546;2022-12-07T05:11:43;16.33;;;10.50;;
17985;SDS011;9118;48.122;11.546;2022-12-07T05:14:11;17.47;;;11.20;;
17985;SDS011;9118;48.122;11.546;2022-12-07T05:16:40;16.50;;;10.20;;
17985;SDS011;9118;48.122;11.546;2022-12-07T05:19:08;18.13;;;11.30;;
17985;SDS011;9118;48.122;11.546;2022-12-07T05:21:36;18.97;;;11.33;;
17985;SDS011;9118;48.122;11.546;2022-12-07T05:24:03;18.13;;;10.90;;
17985;SDS011;9118;48.122;11.546;2022-12-07T05:26:32;18.50;;;11.13;;
17985;SDS011;9118;48.122;11.546;2022-12-07T05:29:00;17.30;;;10.90;;
17985;SDS011;9118;48.122;11.546;2022-12-07T05:31:27;15.80;;;10.30;;
17985;SDS011;9118;48.122;11.546;2022-12-07T05:33:54;19.97;;;11.10;;
17985;SDS011;9118;48.122;11.546;2022-12-07T05:36:21;17.33;;;10.77;;
17985;SDS011;9118;48.122;11.546;2022-12-07T05:38:48;18.27;;;11.47;;
17985;SDS011;9118;48.122;11.546;2022-12-07T05:41:16;14.47;;;9.80;;
17985;SDS011;9118;48.122;11.546;2022-12-07T05:44:03;15.83;;;10.43;;
17985;SDS011;9118;48.122;11.546;2022-12-07T05:46:33;15.63;;;9.97;;
17985;SDS011;9118;48.122;11.546;2022-12-07T05:49:03;17.53;;;10.13;;
17985;SDS011;9118;48.122;11.546;2022-12-07T05:51:30;15.87;;;10.60;;
17985;SDS011;9118;48.122;11.546;2022-12-07T05:53:57;18.43;;;11.83;;
17985;SDS011;9118;48.122;11.546;2022-12-07T05:56:24;15.70;;;9.97;;
17985;SDS011;9118;48.122;11.546;2022-12-07T05:58:51;18.33;;;11.67;;
17985;SDS011;9118;48.122;11.546;2022-12-07T06:01:37;18.57;;;11.70;;
17985;SDS011;9118;48.122;11.546;2022-12-07T06:04:04;19.83;;;11.80;;
17985;SDS011;9118;48.122;11.546;2022-12-07T06:06:31;17.47;;;10.97;;
17985;SDS011;9118;48.122;11.546;2022-12-07T06:09:01;18.33;;;11.57;;
17985;SDS011;9118;48.122;11.546;2022-12-07T06:11:29;19.03;;;11.90;;
17985;SDS011;9118;48.122;11.546;2022-12-07T06:14:13;20.90;;;11.87;;
17985;SDS011;9118;48.122;11.546;2022-12-07T06:16:41;19.00;;;11.80;;
17985;SDS011;9118;48.122;11.546;2022-12-07T06:19:08;18.90;;;11.33;;
17985;SDS011;9118;48.122;11.546;2022-12-07T06:21:35;18.17;;;11.20;;
17985;SDS011;9118;48.122;11.546;2022-12-07T06:24:03;20.03;;;11.97;;
17985;SDS011;9118;48.122;11.546;2022-12-07T06:26:30;20.07;;;12.13;;
17985;SDS011;9118;48.122;11.546;2022-12-07T06:28:57;18.83;;;11.60;;
17985;SDS011;9118;48.122;11.546;2022-12-07T06:31:24;18.63;;;11.53;;
17985;SDS011;9118;48.122;11.546;2022-12-07T06:33:56;18.50;;;11.70;;
17985;SDS011;9118;48.122;11.546;2022-12-07T06:36:24;18.43;;;11.83;;
17985;SDS011;9118;48.122;11.546;2022-12-07T06:38:51;16.53;;;10.77;;
17985;SDS011;9118;48.122;11.546;2022-12-07T06:41:18;20.67;;;11.87;;
17985;SDS011;9118;48.122;11.546;2022-12-07T06:43:45;19.10;;;11.43;;
17985;SDS011;9118;48.122;11.546;2022-12-07T06:46:12;18.17;;;11.40;;
17985;SDS011;9118;48.122;11.546;2022-12-07T06:48:41;20.03;;;11.93;;
17985;SDS011;9118;48.122;11.546;2022-12-07T06:51:10;20.20;;;12.53;;
17985;SDS011;9118;48.122;11.546;2022-12-07T06:53:40;19.10;;;12.00;;
17985;SDS011;9118;48.122;11.546;2022-12-07T06:56:07;18.17;;;11.73;;
17985;SDS011;9118;48.122;11.546;2022-12-07T06:58:34;17.50;;;11.07;;
17985;SDS011;9118;48.122;11.546;2022-12-07T07:01:01;17.40;;;11.70;;
17985;SDS011;9118;48.122;11.546;2022-12-07T07:03:28;18.27;;;11.73;;
17985;SDS011;9118;48.122;11.546;2022-12-07T07:05:55;18.47;;;11.93;;
17985;SDS011;9118;48.122;11.546;2022-12-07T07:08:24;17.40;;;10.97;;
17985;SDS011;9118;48.122;11.546;2022-12-07T07:10:51;19.57;;;11.33;;
17985;SDS011;9118;48.122;11.546;2022-12-07T07:13:19;18.57;;;11.23;;
17985;SDS011;9118;48.122;11.546;2022-12-07T07:15:46;16.80;;;10.97;;
17985;SDS011;9118;48.122;11.546;2022-12-07T07:18:13;18.53;;;12.20;;
17985;SDS011;9118;48.122;11.546;2022-12-07T07:20:40;17.37;;;10.97;;
17985;SDS011;9118;48.122;11.546;2022-12-07T07:23:08;19.37;;;11.87;;
17985;SDS011;9118;48.122;11.546;2022-12-07T07:25:43;20.97;;;12.53;;
17985;SDS011;9118;48.122;11.546;2022-12-07T07:28:10;18.70;;;11.53;;
17985;SDS011;9118;48.122;11.546;2022-12-07T07:30:38;20.03;;;11.83;;
17985;SDS011;9118;48.122;11.546;2022-12-07T07:33:06;21.43;;;13.27;;
17985;SDS011;9118;48.122;11.546;2022-12-07T07:35:34;21.13;;;13.07;;
17985;SDS011;9118;48.122;11.546;2022-12-07T07:38:01;18.33;;;11.87;;
17985;SDS011;9118;48.122;11.546;2022-12-07T07:40:29;16.37;;;11.53;;
17985;SDS011;9118;48.122;11.546;2022-12-07T07:42:57;17.67;;;11.03;;
17985;SDS011;9118;48.122;11.546;2022-12-07T07:45:25;19.47;;;12.10;;
17985;SDS011;9118;48.122;11.546;2022-12-07T07:47:53;18.17;;;11.30;;
17985;SDS011;9118;48.122;11.546;2022-12-07T07:50:20;20.50;;;12.50;;
17985;SDS011;9118;48.122;11.546;2022-12-07T07:52:47;19.53;;;12.30;;
17985;SDS011;9118;48.122;11.546;2022-12-07T07:55:15;20.37;;;12.63;;
17985;SDS011;9118;48.122;11.546;2022-12-07T07:57:42;21.37;;;11.97;;
17985;SDS011;9118;48.122;11.546;2022-12-07T08:00:11;19.30;;;12.10;;
17985;SDS011;9118;48.122;11.546;2022-12-07T08:02:40;20.03;;;13.17;;
17985;SDS011;9118;48.122;11.546;2022-12-07T08:05:11;18.57;;;12.63;;
17985;SDS011;9118;48.122;11.546;2022-12-07T08:07:39;18.43;;;11.63;;
17985;SDS011;9118;48.122;11.546;2022-12-07T08:10:07;17.93;;;11.67;;
17985;SDS011;9118;48.122;11.546;2022-12-07T08:12:36;20.40;;;11.93;;
17985;SDS011;9118;48.122;11.546;2022-12-07T08:15:27;23.17;;;11.37;;
17985;SDS011;9118;48.122;11.546;2022-12-07T08:17:55;20.27;;;12.87;;
17985;SDS011;9118;48.122;11.546;2022-12-07T08:20:23;21.70;;;13.53;;
17985;SDS011;9118;48.122;11.546;2022-12-07T08:22:50;25.50;;;14.13;;
17985;SDS011;9118;48.122;11.546;2022-12-07T08:25:17;19.03;;;12.13;;
17985;SDS011;9118;48.122;11.546;2022-12-07T08:27:45;18.73;;;11.70;;
17985;SDS011;9118;48.122;11.546;2022-12-07T08:30:12;19.50;;;12.60;;
17985;SDS011;9118;48.122;11.546;2022-12-07T08:32:41;18.03;;;11.70;;
17985;SDS011;9118;48.122;11.546;2022-12-07T08:35:10;19.37;;;12.93;;
17985;SDS011;9118;48.122;11.546;2022-12-07T08:37:38;19.50;;;12.67;;
17985;SDS011;9118;48.122;11.546;2022-12-07T08:40:07;20.90;;;12.37;;
17985;SDS011;9118;48.122;11.546;2022-12-07T08:42:40;20.07;;;12.30;;
17985;SDS011;9118;48.122;11.546;2022-12-07T08:45:11;21.10;;;12.00;;
17985;SDS011;9118;48.122;11.546;2022-12-07T08:47:42;21.83;;;13.53;;
17985;SDS011;9118;48.122;11.546;2022-12-07T08:50:12;21.23;;;12.50;;
17985;SDS011;9118;48.122;11.546;2022-12-07T08:52:40;20.07;;;12.67;;
17985;SDS011;9118;48.122;11.546;2022-12-07T08:55:10;19.50;;;12.37;;
17985;SDS011;9118;48.122;11.546;2022-12-07T08:57:38;21.17;;;11.90;;
17985;SDS011;9118;48.122;11.546;2022-12-07T09:00:08;18.70;;;11.77;;
17985;SDS011;9118;48.122;11.546;2022-12-07T09:02:37;17.87;;;12.17;;
17985;SDS011;9118;48.122;11.546;2022-12-07T09:05:06;18.53;;;11.37;;
17985;SDS011;9118;48.122;11.546;2022-12-07T09:07:35;17.03;;;11.07;;
17985;SDS011;9118;48.122;11.546;2022-12-07T09:10:03;17.10;;;11.17;;
17985;SDS011;9118;48.122;11.546;2022-12-07T09:12:31;16.00;;;11.47;;
17985;SDS011;9118;48.122;11.546;2022-12-07T09:14:58;17.60;;;12.47;;
17985;SDS011;9118;48.122;11.546;2022-12-07T09:17:26;16.83;;;11.53;;
17985;SDS011;9118;48.122;11.546;2022-12-07T09:19:53;19.37;;;11.37;;
17985;SDS011;9118;48.122;11.546;2022-12-07T09:22:22;16.93;;;10.87;;
17985;SDS011;9118;48.122;11.546;2022-12-07T09:24:49;18.63;;;11.90;;
17985;SDS011;9118;48.122;11.546;2022-12-07T09:27:24;17.93;;;11.53;;
17985;SDS011;9118;48.122;11.546;2022-12-07T09:29:53;21.43;;;11.13;;
17985;SDS011;9118;48.122;11.546;2022-12-07T09:32:20;15.20;;;10.73;;
17985;SDS011;9118;48.122;11.546;2022-12-07T09:34:47;18.57;;;10.60;;
17985;SDS011;9118;48.122;11.546;2022-12-07T09:37:15;16.70;;;10.67;;
17985;SDS011;9118;48.122;11.546;2022-12-07T09:39:47;17.60;;;10.27;;
17985;SDS011;9118;48.122;11.546;2022-12-07T09:42:18;15.93;;;10.80;;
17985;SDS011;9118;48.122;11.546;2022-12-07T09:44:53;17.70;;;11.40;;
17985;SDS011;9118;48.122;11.546;2022-12-07T09:47:21;17.73;;;10.77;;
17985;SDS011;9118;48.122;11.546;2022-12-07T09:49:49;18.47;;;11.17;;
17985;SDS011;9118;48.122;11.546;2022-12-07T09:52:17;15.47;;;10.63;;
17985;SDS011;9118;48.122;11.546;2022-12-07T09:54:53;16.90;;;10.40;;
17985;SDS011;9118;48.122;11.546;2022-12-07T09:57:33;18.67;;;9.93;;
17985;SDS011;9118;48.122;11.546;2022-12-07T10:00:06;16.70;;;10.93;;
17985;SDS011;9118;48.122;11.546;2022-12-07T10:02:57;16.60;;;10.87;;
17985;SDS011;9118;48.122;11.546;2022-12-07T10:05:35;16.00;;;10.57;;
17985;SDS011;9118;48.122;11.546;2022-12-07T10:08:19;14.83;;;10.00;;
17985;SDS011;9118;48.122;11.546;2022-12-07T10:10:53;16.30;;;10.80;;
17985;SDS011;9118;48.122;11.546;2022-12-07T10:13:23;18.40;;;10.70;;
17985;SDS011;9118;48.122;11.546;2022-12-07T10:16:01;15.27;;;10.00;;
17985;SDS011;9118;48.122;11.546;2022-12-07T10:18:33;14.33;;;9.53;;
17985;SDS011;9118;48.122;11.546;2022-12-07T10:21:08;15.60;;;9.80;;
17985;SDS011;9118;48.122;11.546;2022-12-07T10:23:41;13.00;;;9.40;;
17985;SDS011;9118;48.122;11.546;2022-12-07T10:26:46;13.90;;;9.10;;
17985;SDS011;9118;48.122;11.546;2022-12-07T10:29:29;13.80;;;9.20;;
17985;SDS011;9118;48.122;11.546;2022-12-07T10:31:58;13.70;;;9.93;;
17985;SDS011;9118;48.122;11.546;2022-12-07T10:34:32;16.53;;;10.00;;
17985;SDS011;9118;48.122;11.546;2022-12-07T10:37:13;14.50;;;8.60;;
17985;SDS011;9118;48.122;11.546;2022-12-07T10:39:43;12.97;;;8.70;;
17985;SDS011;9118;48.122;11.546;2022-12-07T10:42:17;13.53;;;8.83;;
17985;SDS011;9118;48.122;11.546;2022-12-07T10:44:47;12.07;;;7.90;;
17985;SDS011;9118;48.122;11.546;2022-12-07T10:47:19;12.43;;;8.67;;
17985;SDS011;9118;48.122;11.546;2022-12-07T10:50:01;12.73;;;8.30;;
17985;SDS011;9118;48.122;11.546;2022-12-07T10:53:02;16.00;;;8.93;;
17985;SDS011;9118;48.122;11.546;2022-12-07T10:55:47;16.57;;;8.73;;
17985;SDS011;9118;48.122;11.546;2022-12-07T10:58:42;13.67;;;8.80;;
17985;SDS011;9118;48.122;11.546;2022-12-07T11:01:24;14.33;;;8.03;;
17985;SDS011;9118;48.122;11.546;2022-12-07T11:04:18;13.07;;;8.33;;
17985;SDS011;9118;48.122;11.546;2022-12-07T11:06:58;10.57;;;7.37;;
17985;SDS011;9118;48.122;11.546;2022-12-07T11:09:42;12.27;;;8.13;;
17985;SDS011;9118;48.122;11.546;2022-12-07T11:12:20;12.27;;;8.23;;
17985;SDS011;9118;48.122;11.546;2022-12-07T11:15:02;13.93;;;8.23;;
17985;SDS011;9118;48.122;11.546;2022-12-07T11:17:42;11.87;;;8.07;;
17985;SDS011;9118;48.122;11.546;2022-12-07T11:20:18;18.90;;;7.97;;
17985;SDS011;9118;48.122;11.546;2022-12-07T11:22:57;12.93;;;7.97;;
17985;SDS011;9118;48.122;11.546;2022-12-07T11:25:32;10.57;;;7.03;;
17985;SDS011;9118;48.122;11.546;2022-12-07T11:28:15;11.10;;;7.43;;
17985;SDS011;9118;48.122;11.546;2022-12-07T11:30:57;10.87;;;6.80;;
17985;SDS011;9118;48.122;11.546;2022-12-07T11:33:33;9.43;;;6.80;;
17985;SDS011;9118;48.122;11.546;2022-12-07T11:36:09;10.10;;;7.23;;
17985;SDS011;9118;48.122;11.546;2022-12-07T11:38:52;8.70;;;6.67;;
17985;SDS011;9118;48.122;11.546;2022-12-07T11:41:23;12.43;;;7.50;;
17985;SDS011;9118;48.122;11.546;2022-12-07T11:43:58;9.90;;;6.70;;
17985;SDS011;9118;48.122;11.546;2022-12-07T11:46:36;10.47;;;7.33;;
17985;SDS011;9118;48.122;11.546;2022-12-07T11:49:14;9.97;;;7.13;;
17985;SDS011;9118;48.122;11.546;2022-12-07T11:51:47;10.60;;;7.43;;
17985;SDS011;9118;48.122;11.546;2022-12-07T11:54:19;10.50;;;7.27;;
17985;SDS011;9118;48.122;11.546;2022-12-07T11:56:51;10.80;;;7.40;;
17985;SDS011;9118;48.122;11.546;2022-12-07T11:59:23;12.17;;;6.93;;
17985;SDS011;9118;48.122;11.546;2022-12-07T12:01:58;10.40;;;6.57;;
17985;SDS011;9118;48.122;11.546;2022-12-07T12:04:50;10.00;;;6.77;;
17985;SDS011;9118;48.122;11.546;2022-12-07T12:07:22;10.33;;;6.93;;
17985;SDS011;9118;48.122;11.546;2022-12-07T12:09:52;9.80;;;6.73;;
17985;SDS011;9118;48.122;11.546;2022-12-07T12:12:31;11.40;;;7.13;;
17985;SDS011;9118;48.122;11.546;2022-12-07T12:15:18;11.27;;;6.80;;
17985;SDS011;9118;48.122;11.546;2022-12-07T12:18:01;10.73;;;7.03;;
17985;SDS011;9118;48.122;11.546;2022-12-07T12:20:48;11.07;;;6.70;;
17985;SDS011;9118;48.122;11.546;2022-12-07T12:23:25;10.60;;;6.90;;
17985;SDS011;9118;48.122;11.546;2022-12-07T12:26:03;10.67;;;7.33;;
17985;SDS011;9118;48.122;11.546;2022-12-07T12:28:40;11.17;;;7.83;;
17985;SDS011;9118;48.122;11.546;2022-12-07T12:31:16;20.33;;;7.87;;
17985;SDS011;9118;48.122;11.546;2022-12-07T12:33:59;14.87;;;8.33;;
17985;SDS011;9118;48.122;11.546;2022-12-07T12:36:44;11.80;;;7.67;;
17985;SDS011;9118;48.122;11.546;2022-12-07T12:39:13;14.23;;;8.20;;
17985;SDS011;9118;48.122;11.546;2022-12-07T12:41:54;9.80;;;7.00;;
17985;SDS011;9118;48.122;11.546;2022-12-07T12:47:51;10.40;;;7.23;;
17985;SDS011;9118;48.122;11.546;2022-12-07T12:50:22;12.53;;;8.50;;
17985;SDS011;9118;48.122;11.546;2022-12-07T12:52:58;15.37;;;7.60;;
17985;SDS011;9118;48.122;11.546;2022-12-07T12:55:54;13.33;;;8.00;;
17985;SDS011;9118;48.122;11.546;2022-12-07T12:58:41;15.27;;;7.83;;
17985;SDS011;9118;48.122;11.546;2022-12-07T13:06:58;12.90;;;7.27;;
17985;SDS011;9118;48.122;11.546;2022-12-07T13:09:26;11.73;;;7.80;;
17985;SDS011;9118;48.122;11.546;2022-12-07T13:11:56;11.57;;;7.87;;
17985;SDS011;9118;48.122;11.546;2022-12-07T13:14:37;12.90;;;8.53;;
17985;SDS011;9118;48.122;11.546;2022-12-07T13:17:08;18.57;;;10.27;;
17985;SDS011;9118;48.122;11.546;2022-12-07T13:22:42;14.80;;;8.20;;
17985;SDS011;9118;48.122;11.546;2022-12-07T13:25:18;10.67;;;7.57;;
17985;SDS011;9118;48.122;11.546;2022-12-07T13:27:50;10.40;;;7.10;;
17985;SDS011;9118;48.122;11.546;2022-12-07T13:30:22;10.50;;;7.17;;
17985;SDS011;9118;48.122;11.546;2022-12-07T13:32:51;11.93;;;7.73;;
17985;SDS011;9118;48.122;11.546;2022-12-07T13:35:29;11.73;;;8.03;;
17985;SDS011;9118;48.122;11.546;2022-12-07T13:37:59;11.83;;;7.80;;
17985;SDS011;9118;48.122;11.546;2022-12-07T13:40:29;11.27;;;7.43;;
17985;SDS011;9118;48.122;11.546;2022-12-07T13:42:59;10.33;;;6.90;;
17985;SDS011;9118;48.122;11.546;2022-12-07T13:45:28;10.67;;;6.50;;
17985;SDS011;9118;48.122;11.546;2022-12-07T13:48:19;11.90;;;7.50;;
17985;SDS011;9118;48.122;11.546;2022-12-07T13:50:54;14.43;;;7.67;;
17985;SDS011;9118;48.122;11.546;2022-12-07T13:53:24;11.27;;;7.30;;
17985;SDS011;9118;48.122;11.546;2022-12-07T13:55:55;11.10;;;7.00;;
17985;SDS011;9118;48.122;11.546;2022-12-07T13:58:23;13.87;;;7.30;;
17985;SDS011;9118;48.122;11.546;2022-12-07T14:00:51;11.00;;;7.20;;
17985;SDS011;9118;48.122;11.546;2022-12-07T14:03:31;10.60;;;7.17;;
17985;SDS011;9118;48.122;11.546;2022-12-07T14:06:13;12.67;;;7.17;;
17985;SDS011;9118;48.122;11.546;2022-12-07T14:08:45;11.73;;;7.43;;
17985;SDS011;9118;48.122;11.546;2022-12-07T14:11:14;15.90;;;7.80;;
17985;SDS011;9118;48.122;11.546;2022-12-07T14:13:45;14.90;;;7.80;;
17985;SDS011;9118;48.122;11.546;2022-12-07T14:16:25;14.17;;;8.00;;
17985;SDS011;9118;48.122;11.546;2022-12-07T14:18:55;11.93;;;8.03;;
17985;SDS011;9118;48.122;11.546;2022-12-07T14:21:24;15.10;;;7.23;;
17985;SDS011;9118;48.122;11.546;2022-12-07T14:26:45;13.33;;;7.27;;
17985;SDS011;9118;48.122;11.546;2022-12-07T14:32:21;14.30;;;7.00;;
17985;SDS011;9118;48.122;11.546;2022-12-07T14:34:54;10.87;;;6.93;;
17985;SDS011;9118;48.122;11.546;2022-12-07T14:37:22;12.57;;;7.13;;
17985;SDS011;9118;48.122;11.546;2022-12-07T14:40:02;12.73;;;6.97;;
17985;SDS011;9118;48.122;11.546;2022-12-07T14:42:30;9.70;;;6.50;;
17985;SDS011;9118;48.122;11.546;2022-12-07T14:44:59;12.53;;;6.47;;
17985;SDS011;9118;48.122;11.546;2022-12-07T14:47:26;10.10;;;6.67;;
17985;SDS011;9118;48.122;11.546;2022-12-07T14:49:56;9.37;;;5.80;;
17985;SDS011;9118;48.122;11.546;2022-12-07T14:52:24;8.13;;;6.13;;
17985;SDS011;9118;48.122;11.546;2022-12-07T14:54:56;10.37;;;6.20;;
17985;SDS011;9118;48.122;11.546;2022-12-07T14:57:24;11.00;;;6.20;;
17985;SDS011;9118;48.122;11.546;2022-12-07T14:59:51;10.33;;;5.83;;
17985;SDS011;9118;48.122;11.546;2022-12-07T15:02:27;11.97;;;6.20;;
17985;SDS011;9118;48.122;11.546;2022-12-07T15:04:54;9.30;;;6.23;;
17985;SDS011;9118;48.122;11.546;2022-12-07T15:07:21;8.53;;;5.90;;
17985;SDS011;9118;48.122;11.546;2022-12-07T15:09:48;11.57;;;6.83;;
17985;SDS011;9118;48.122;11.546;2022-12-07T15:12:21;13.00;;;7.33;;
17985;SDS011;9118;48.122;11.546;2022-12-07T15:14:52;13.23;;;7.50;;
17985;SDS011;9118;48.122;11.546;2022-12-07T15:17:19;12.57;;;7.50;;
17985;SDS011;9118;48.122;11.546;2022-12-07T15:19:46;11.93;;;7.40;;